Saint Louis, Missouri
Traffic Map
Current Weather Conditions
Saint Louis, Missouri
Clear
Clear
90°
Feels Like: 92°
Wind Chill: 90° Ceiling: Unl
Heat Index: 92° Visibility: 10mi
Dew Point: 66° Wind: 6mph
Humidity: 45% Direction: 230° (SW)
Pressure: 29.78in Gusts: 0mph
Raw Report DataKCPS 262053Z 23005KT 10SM CLR 32/19 A2978 RMK AO2 SLP080 T03220189 56017
Traffic Incident Summary
Active as of:
Severity:
Category:
InformationThere was an issue retrieving the traffic information for this location. Please try a different location or try again shortly.
Advertisements